sensor_id;sensor_type;location;lat;lon;timestamp;pressure;altitude;pressure_sealevel;temperature;humidity
79527;BME280;68974;47.754;-3.364;2023-06-24T00:00:44;102483.91;;;19.25;62.82
79527;BME280;68974;47.754;-3.364;2023-06-24T00:03:10;102478.13;;;19.17;63.12
79527;BME280;68974;47.754;-3.364;2023-06-24T00:05:37;102473.44;;;19.12;62.73
79527;BME280;68974;47.754;-3.364;2023-06-24T00:08:04;102466.81;;;19.08;62.19
79527;BME280;68974;47.754;-3.364;2023-06-24T00:10:32;102468.00;;;19.02;62.52
79527;BME280;68974;47.754;-3.364;2023-06-24T00:12:57;102464.63;;;19.05;62.02
79527;BME280;68974;47.754;-3.364;2023-06-24T00:15:26;102466.47;;;19.15;61.63
79527;BME280;68974;47.754;-3.364;2023-06-24T00:17:52;102468.81;;;19.02;62.02
79527;BME280;68974;47.754;-3.364;2023-06-24T00:20:17;102468.31;;;19.00;61.97
79527;BME280;68974;47.754;-3.364;2023-06-24T00:22:45;102466.16;;;18.92;61.54
79527;BME280;68974;47.754;-3.364;2023-06-24T00:25:14;102456.69;;;18.93;61.47
79527;BME280;68974;47.754;-3.364;2023-06-24T00:27:41;102453.91;;;18.93;61.35
79527;BME280;68974;47.754;-3.364;2023-06-24T00:30:07;102454.97;;;18.97;60.89
79527;BME280;68974;47.754;-3.364;2023-06-24T00:32:33;102445.00;;;18.91;61.27
79527;BME280;68974;47.754;-3.364;2023-06-24T00:34:58;102445.25;;;18.95;60.84
79527;BME280;68974;47.754;-3.364;2023-06-24T00:37:25;102445.53;;;18.93;60.99
79527;BME280;68974;47.754;-3.364;2023-06-24T00:39:51;102447.72;;;18.96;60.68
79527;BME280;68974;47.754;-3.364;2023-06-24T00:42:16;102444.38;;;18.99;60.62
79527;BME280;68974;47.754;-3.364;2023-06-24T00:44:42;102427.53;;;18.86;60.62
79527;BME280;68974;47.754;-3.364;2023-06-24T00:47:08;102430.91;;;18.83;61.46
79527;BME280;68974;47.754;-3.364;2023-06-24T00:49:34;102425.09;;;18.79;61.79
79527;BME280;68974;47.754;-3.364;2023-06-24T00:51:59;102421.66;;;18.87;61.65
79527;BME280;68974;47.754;-3.364;2023-06-24T00:54:26;102428.66;;;18.85;61.49
79527;BME280;68974;47.754;-3.364;2023-06-24T00:56:59;102420.09;;;18.81;62.01
79527;BME280;68974;47.754;-3.364;2023-06-24T00:59:26;102426.50;;;18.77;61.75
79527;BME280;68974;47.754;-3.364;2023-06-24T01:01:56;102425.56;;;18.86;61.96
79527;BME280;68974;47.754;-3.364;2023-06-24T01:04:23;102427.94;;;18.74;62.07
79527;BME280;68974;47.754;-3.364;2023-06-24T01:06:50;102426.88;;;18.70;62.17
79527;BME280;68974;47.754;-3.364;2023-06-24T01:09:15;102419.94;;;18.68;62.26
79527;BME280;68974;47.754;-3.364;2023-06-24T01:11:41;102414.69;;;18.66;62.18
79527;BME280;68974;47.754;-3.364;2023-06-24T01:14:06;102419.72;;;18.64;62.31
79527;BME280;68974;47.754;-3.364;2023-06-24T01:17:04;102421.09;;;18.67;62.36
79527;BME280;68974;47.754;-3.364;2023-06-24T01:33:42;102409.03;;;18.42;63.23
79527;BME280;68974;47.754;-3.364;2023-06-24T01:36:11;102400.34;;;18.54;63.30
79527;BME280;68974;47.754;-3.364;2023-06-24T01:38:44;102397.00;;;18.52;63.40
79527;BME280;68974;47.754;-3.364;2023-06-24T01:41:13;102393.66;;;18.50;63.57
79527;BME280;68974;47.754;-3.364;2023-06-24T01:43:42;102390.16;;;18.39;63.78
79527;BME280;68974;47.754;-3.364;2023-06-24T01:46:10;102389.88;;;18.41;63.82
79527;BME280;68974;47.754;-3.364;2023-06-24T01:48:38;102390.44;;;18.38;63.94
79527;BME280;68974;47.754;-3.364;2023-06-24T01:51:10;102382.41;;;18.36;63.75
79527;BME280;68974;47.754;-3.364;2023-06-24T01:53:39;102381.03;;;18.34;63.86
79527;BME280;68974;47.754;-3.364;2023-06-24T01:56:09;102382.16;;;18.33;64.05
79527;BME280;68974;47.754;-3.364;2023-06-24T01:58:35;102376.72;;;18.23;64.71
79527;BME280;68974;47.754;-3.364;2023-06-24T02:01:02;102367.22;;;18.24;64.57
79527;BME280;68974;47.754;-3.364;2023-06-24T02:03:29;102378.94;;;18.21;64.46
79527;BME280;68974;47.754;-3.364;2023-06-24T02:05:57;102375.13;;;18.11;64.94
79527;BME280;68974;47.754;-3.364;2023-06-24T02:08:24;102373.97;;;18.17;64.55
79527;BME280;68974;47.754;-3.364;2023-06-24T02:10:51;102379.03;;;18.10;64.75
79527;BME280;68974;47.754;-3.364;2023-06-24T02:13:18;102376.44;;;18.19;64.92
79527;BME280;68974;47.754;-3.364;2023-06-24T02:15:45;102372.34;;;18.11;64.92
79527;BME280;68974;47.754;-3.364;2023-06-24T02:18:13;102367.06;;;18.10;64.68
79527;BME280;68974;47.754;-3.364;2023-06-24T02:20:41;102373.22;;;18.07;64.82
79527;BME280;68974;47.754;-3.364;2023-06-24T02:23:10;102367.41;;;18.03;65.33
79527;BME280;68974;47.754;-3.364;2023-06-24T02:25:38;102372.16;;;18.03;65.30
79527;BME280;68974;47.754;-3.364;2023-06-24T02:28:05;102372.50;;;17.96;65.82
79527;BME280;68974;47.754;-3.364;2023-06-24T02:30:33;102362.44;;;18.00;65.69
79527;BME280;68974;47.754;-3.364;2023-06-24T02:32:59;102365.78;;;18.02;65.58
79527;BME280;68974;47.754;-3.364;2023-06-24T02:35:24;102359.38;;;18.02;65.38
79527;BME280;68974;47.754;-3.364;2023-06-24T02:37:50;102363.00;;;18.02;65.43
79527;BME280;68974;47.754;-3.364;2023-06-24T02:40:15;102359.38;;;18.02;65.40
79527;BME280;68974;47.754;-3.364;2023-06-24T02:42:41;102363.00;;;18.02;65.57
79527;BME280;68974;47.754;-3.364;2023-06-24T02:45:07;102358.78;;;18.05;65.39
79527;BME280;68974;47.754;-3.364;2023-06-24T02:47:34;102352.66;;;18.08;65.51
79527;BME280;68974;47.754;-3.364;2023-06-24T02:50:01;102360.50;;;18.01;65.38
79527;BME280;68974;47.754;-3.364;2023-06-24T02:52:27;102364.09;;;18.01;65.38
79527;BME280;68974;47.754;-3.364;2023-06-24T02:54:55;102361.28;;;18.06;65.07
79527;BME280;68974;47.754;-3.364;2023-06-24T02:57:22;102354.97;;;17.96;65.16
79527;BME280;68974;47.754;-3.364;2023-06-24T02:59:49;102361.09;;;17.98;65.48
79527;BME280;68974;47.754;-3.364;2023-06-24T03:02:15;102355.31;;;17.89;65.70
79527;BME280;68974;47.754;-3.364;2023-06-24T03:04:41;102353.16;;;17.81;65.77
79527;BME280;68974;47.754;-3.364;2023-06-24T03:07:07;102348.47;;;17.77;66.20
79527;BME280;68974;47.754;-3.364;2023-06-24T03:09:35;102353.47;;;17.74;66.12
79527;BME280;68974;47.754;-3.364;2023-06-24T03:12:01;102349.06;;;17.73;66.49
79527;BME280;68974;47.754;-3.364;2023-06-24T03:14:26;102340.38;;;17.80;66.26
79527;BME280;68974;47.754;-3.364;2023-06-24T03:16:51;102349.03;;;17.79;66.49
79527;BME280;68974;47.754;-3.364;2023-06-24T03:19:17;102346.53;;;17.77;66.04
79527;BME280;68974;47.754;-3.364;2023-06-24T03:21:42;102351.06;;;17.68;66.19
79527;BME280;68974;47.754;-3.364;2023-06-24T03:24:07;102351.06;;;17.68;66.44
79527;BME280;68974;47.754;-3.364;2023-06-24T03:26:37;102338.28;;;17.67;66.48
79527;BME280;68974;47.754;-3.364;2023-06-24T03:29:03;102343.28;;;17.65;66.81
79527;BME280;68974;47.754;-3.364;2023-06-24T03:31:29;102342.72;;;17.68;66.68
79527;BME280;68974;47.754;-3.364;2023-06-24T03:33:54;102343.88;;;17.62;66.87
79527;BME280;68974;47.754;-3.364;2023-06-24T03:36:20;102334.81;;;17.80;66.01
79527;BME280;68974;47.754;-3.364;2023-06-24T03:38:46;102332.88;;;17.81;66.11
79527;BME280;68974;47.754;-3.364;2023-06-24T03:41:11;102340.47;;;17.70;66.26
79527;BME280;68974;47.754;-3.364;2023-06-24T03:43:37;102342.13;;;17.71;65.90
79527;BME280;68974;47.754;-3.364;2023-06-24T03:46:02;102344.38;;;17.69;65.96
79527;BME280;68974;47.754;-3.364;2023-06-24T03:48:27;102346.56;;;17.72;65.78
79527;BME280;68974;47.754;-3.364;2023-06-24T03:50:53;102339.69;;;17.59;65.70
79527;BME280;68974;47.754;-3.364;2023-06-24T03:53:18;102340.59;;;17.45;66.47
79527;BME280;68974;47.754;-3.364;2023-06-24T03:55:44;102342.28;;;17.46;66.24
79527;BME280;68974;47.754;-3.364;2023-06-24T03:58:09;102349.50;;;17.47;66.31
79527;BME280;68974;47.754;-3.364;2023-06-24T04:00:34;102342.00;;;17.47;66.48
79527;BME280;68974;47.754;-3.364;2023-06-24T04:03:01;102340.53;;;17.60;65.58
79527;BME280;68974;47.754;-3.364;2023-06-24T04:05:26;102342.75;;;17.63;65.72
79527;BME280;68974;47.754;-3.364;2023-06-24T04:07:52;102334.47;;;17.53;65.95
79527;BME280;68974;47.754;-3.364;2023-06-24T04:10:18;102333.91;;;17.51;65.53
79527;BME280;68974;47.754;-3.364;2023-06-24T04:12:45;102328.59;;;17.59;66.02
79527;BME280;68974;47.754;-3.364;2023-06-24T04:15:11;102328.31;;;17.61;65.80
79527;BME280;68974;47.754;-3.364;2023-06-24T04:17:36;102329.16;;;17.56;66.00
79527;BME280;68974;47.754;-3.364;2023-06-24T04:20:02;102325.53;;;17.56;65.71
79527;BME280;68974;47.754;-3.364;2023-06-24T04:22:29;102331.66;;;17.58;65.55
79527;BME280;68974;47.754;-3.364;2023-06-24T04:24:55;102327.25;;;17.52;65.65
79527;BME280;68974;47.754;-3.364;2023-06-24T04:27:20;102330.56;;;17.54;65.56
79527;BME280;68974;47.754;-3.364;2023-06-24T04:29:46;102338.94;;;17.49;65.54
79527;BME280;68974;47.754;-3.364;2023-06-24T04:32:11;102335.44;;;17.72;65.03
79527;BME280;68974;47.754;-3.364;2023-06-24T04:34:36;102336.56;;;17.71;65.09
79527;BME280;68974;47.754;-3.364;2023-06-24T04:37:02;102334.34;;;17.73;64.76
79527;BME280;68974;47.754;-3.364;2023-06-24T04:39:27;102340.47;;;17.70;64.81
79527;BME280;68974;47.754;-3.364;2023-06-24T04:41:53;102334.06;;;17.69;64.93
79527;BME280;68974;47.754;-3.364;2023-06-24T04:44:18;102343.78;;;17.72;64.73
79527;BME280;68974;47.754;-3.364;2023-06-24T04:46:45;102336.09;;;17.64;64.73
79527;BME280;68974;47.754;-3.364;2023-06-24T04:49:11;102332.16;;;17.65;64.86
79527;BME280;68974;47.754;-3.364;2023-06-24T04:51:36;102326.03;;;17.68;64.67
79527;BME280;68974;47.754;-3.364;2023-06-24T04:54:02;102326.97;;;17.87;63.62
79527;BME280;68974;47.754;-3.364;2023-06-24T04:56:28;102327.31;;;17.81;64.58
79527;BME280;68974;47.754;-3.364;2023-06-24T04:58:54;102332.03;;;17.80;63.83
79527;BME280;68974;47.754;-3.364;2023-06-24T05:01:19;102332.00;;;17.85;63.79
79527;BME280;68974;47.754;-3.364;2023-06-24T05:03:44;102331.91;;;17.95;63.36
79527;BME280;68974;47.754;-3.364;2023-06-24T05:06:10;102334.31;;;18.07;62.54
79527;BME280;68974;47.754;-3.364;2023-06-24T05:08:35;102334.03;;;18.03;62.82
79527;BME280;68974;47.754;-3.364;2023-06-24T05:11:00;102336.22;;;18.11;62.92
79527;BME280;68974;47.754;-3.364;2023-06-24T05:13:27;102333.84;;;18.24;62.32
79527;BME280;68974;47.754;-3.364;2023-06-24T05:15:53;102332.06;;;18.33;61.28
79527;BME280;68974;47.754;-3.364;2023-06-24T05:18:18;102328.66;;;18.41;61.57
79527;BME280;68974;47.754;-3.364;2023-06-24T05:20:43;102326.41;;;18.43;60.95
79527;BME280;68974;47.754;-3.364;2023-06-24T05:23:09;102327.53;;;18.42;61.25
79527;BME280;68974;47.754;-3.364;2023-06-24T05:25:34;102326.88;;;18.50;61.24
79527;BME280;68974;47.754;-3.364;2023-06-24T05:28:00;102322.91;;;18.61;60.60
79527;BME280;68974;47.754;-3.364;2023-06-24T05:30:26;102315.53;;;18.70;60.69
79527;BME280;68974;47.754;-3.364;2023-06-24T05:32:51;102317.94;;;18.77;60.09
79527;BME280;68974;47.754;-3.364;2023-06-24T05:35:17;102321.75;;;18.86;60.00
79527;BME280;68974;47.754;-3.364;2023-06-24T05:37:42;102319.63;;;18.96;59.80
79527;BME280;68974;47.754;-3.364;2023-06-24T05:40:08;102308.97;;;19.03;59.09
79527;BME280;68974;47.754;-3.364;2023-06-24T05:42:34;102312.88;;;19.02;59.38
79527;BME280;68974;47.754;-3.364;2023-06-24T05:45:00;102317.47;;;19.12;59.19
79527;BME280;68974;47.754;-3.364;2023-06-24T05:47:25;102317.59;;;19.21;59.09
79527;BME280;68974;47.754;-3.364;2023-06-24T05:49:51;102306.94;;;19.28;58.85
79527;BME280;68974;47.754;-3.364;2023-06-24T05:52:16;102305.66;;;19.39;58.69
79527;BME280;68974;47.754;-3.364;2023-06-24T05:54:41;102301.66;;;19.45;58.46
79527;BME280;68974;47.754;-3.364;2023-06-24T05:57:07;102309.94;;;19.50;58.01
79527;BME280;68974;47.754;-3.364;2023-06-24T05:59:33;102311.16;;;19.63;58.15
79527;BME280;68974;47.754;-3.364;2023-06-24T06:01:58;102304.94;;;19.66;57.91
79527;BME280;68974;47.754;-3.364;2023-06-24T06:04:24;102306.22;;;19.73;57.86
79527;BME280;68974;47.754;-3.364;2023-06-24T06:06:49;102300.47;;;19.83;57.58
79527;BME280;68974;47.754;-3.364;2023-06-24T06:09:15;102303.19;;;19.88;57.64
79527;BME280;68974;47.754;-3.364;2023-06-24T06:11:40;102310.81;;;19.97;57.71
79527;BME280;68974;47.754;-3.364;2023-06-24T06:14:05;102314.16;;;19.99;57.49
79527;BME280;68974;47.754;-3.364;2023-06-24T06:16:31;102304.63;;;20.00;57.49
79527;BME280;68974;47.754;-3.364;2023-06-24T06:18:56;102307.56;;;20.08;57.59
79527;BME280;68974;47.754;-3.364;2023-06-24T06:21:22;102303.84;;;20.13;57.64
79527;BME280;68974;47.754;-3.364;2023-06-24T06:23:47;102301.16;;;20.21;57.58
79527;BME280;68974;47.754;-3.364;2023-06-24T06:26:13;102307.97;;;20.29;57.41
79527;BME280;68974;47.754;-3.364;2023-06-24T06:28:38;102308.81;;;20.29;57.45
79527;BME280;68974;47.754;-3.364;2023-06-24T06:31:03;102312.56;;;20.39;57.51
79527;BME280;68974;47.754;-3.364;2023-06-24T06:33:29;102303.88;;;20.40;57.32
79527;BME280;68974;47.754;-3.364;2023-06-24T06:35:54;102315.06;;;20.54;57.52
79527;BME280;68974;47.754;-3.364;2023-06-24T06:38:19;102311.13;;;20.68;58.39
79527;BME280;68974;47.754;-3.364;2023-06-24T06:40:45;102310.91;;;20.79;59.54
79527;BME280;68974;47.754;-3.364;2023-06-24T06:43:11;102298.38;;;20.90;57.52
79527;BME280;68974;47.754;-3.364;2023-06-24T06:45:36;102308.00;;;20.84;57.04
79527;BME280;68974;47.754;-3.364;2023-06-24T06:48:02;102303.75;;;21.00;56.34
79527;BME280;68974;47.754;-3.364;2023-06-24T06:50:30;102307.13;;;20.97;56.18
79527;BME280;68974;47.754;-3.364;2023-06-24T06:52:56;102309.22;;;21.05;56.55
79527;BME280;68974;47.754;-3.364;2023-06-24T06:55:21;102302.38;;;20.97;56.75
79527;BME280;68974;47.754;-3.364;2023-06-24T06:57:47;102303.81;;;21.08;56.38
79527;BME280;68974;47.754;-3.364;2023-06-24T07:00:12;102302.25;;;21.16;56.26
79527;BME280;68974;47.754;-3.364;2023-06-24T07:02:38;102295.06;;;21.37;55.94
79527;BME280;68974;47.754;-3.364;2023-06-24T07:05:03;102293.53;;;21.53;55.61
79527;BME280;68974;47.754;-3.364;2023-06-24T07:07:29;102302.81;;;21.63;55.14
79527;BME280;68974;47.754;-3.364;2023-06-24T07:09:54;102289.28;;;21.56;55.41
79527;BME280;68974;47.754;-3.364;2023-06-24T07:12:19;102284.91;;;21.64;55.07
79527;BME280;68974;47.754;-3.364;2023-06-24T07:14:46;102293.66;;;21.71;55.07
79527;BME280;68974;47.754;-3.364;2023-06-24T07:17:11;102290.84;;;21.93;54.76
79527;BME280;68974;47.754;-3.364;2023-06-24T07:19:36;102291.78;;;22.11;54.32
79527;BME280;68974;47.754;-3.364;2023-06-24T07:22:02;102286.28;;;22.28;53.82
79527;BME280;68974;47.754;-3.364;2023-06-24T07:24:27;102282.84;;;22.39;53.85
79527;BME280;68974;47.754;-3.364;2023-06-24T07:26:53;102290.53;;;22.65;53.14
79527;BME280;68974;47.754;-3.364;2023-06-24T07:29:18;102276.44;;;22.87;52.08
79527;BME280;68974;47.754;-3.364;2023-06-24T07:31:43;102281.69;;;22.88;52.16
79527;BME280;68974;47.754;-3.364;2023-06-24T07:34:09;102280.56;;;23.07;51.77
79527;BME280;68974;47.754;-3.364;2023-06-24T07:36:34;102283.03;;;23.17;51.50
79527;BME280;68974;47.754;-3.364;2023-06-24T07:39:00;102277.09;;;23.27;51.64
79527;BME280;68974;47.754;-3.364;2023-06-24T07:41:25;102284.88;;;23.30;51.47
79527;BME280;68974;47.754;-3.364;2023-06-24T07:43:50;102271.34;;;23.41;50.90
79527;BME280;68974;47.754;-3.364;2023-06-24T07:46:16;102269.66;;;23.65;50.62
79527;BME280;68974;47.754;-3.364;2023-06-24T07:48:42;102268.97;;;23.86;50.06
79527;BME280;68974;47.754;-3.364;2023-06-24T07:51:07;102274.94;;;23.84;50.47
79527;BME280;68974;47.754;-3.364;2023-06-24T07:53:34;102282.78;;;24.08;49.59
79527;BME280;68974;47.754;-3.364;2023-06-24T07:55:59;102284.34;;;24.35;49.01
79527;BME280;68974;47.754;-3.364;2023-06-24T07:58:24;102277.97;;;24.55;48.43
79527;BME280;68974;47.754;-3.364;2023-06-24T08:00:50;102276.63;;;24.61;48.02
79527;BME280;68974;47.754;-3.364;2023-06-24T08:03:15;102276.00;;;24.55;48.76
79527;BME280;68974;47.754;-3.364;2023-06-24T08:05:40;102280.81;;;24.76;47.95
79527;BME280;68974;47.754;-3.364;2023-06-24T08:08:08;102276.38;;;25.25;47.32
79527;BME280;68974;47.754;-3.364;2023-06-24T08:10:33;102265.78;;;25.42;47.16
79527;BME280;68974;47.754;-3.364;2023-06-24T08:12:59;102268.38;;;25.68;46.03
79527;BME280;68974;47.754;-3.364;2023-06-24T08:15:24;102276.84;;;25.80;45.06
79527;BME280;68974;47.754;-3.364;2023-06-24T08:17:51;102267.88;;;25.66;45.52
79527;BME280;68974;47.754;-3.364;2023-06-24T08:20:17;102264.41;;;25.81;44.68
79527;BME280;68974;47.754;-3.364;2023-06-24T08:22:42;102262.31;;;26.23;44.44
79527;BME280;68974;47.754;-3.364;2023-06-24T08:25:08;102268.03;;;26.63;43.16
79527;BME280;68974;47.754;-3.364;2023-06-24T08:27:33;102263.69;;;26.66;42.39
79527;BME280;68974;47.754;-3.364;2023-06-24T08:29:59;102263.78;;;26.94;42.38
79527;BME280;68974;47.754;-3.364;2023-06-24T08:32:24;102263.22;;;27.28;41.50
79527;BME280;68974;47.754;-3.364;2023-06-24T08:34:50;102263.03;;;27.21;41.42
79527;BME280;68974;47.754;-3.364;2023-06-24T08:37:16;102255.41;;;27.37;41.38
79527;BME280;68974;47.754;-3.364;2023-06-24T08:39:41;102253.63;;;27.45;41.20
79527;BME280;68974;47.754;-3.364;2023-06-24T08:42:06;102252.63;;;27.81;40.38
79527;BME280;68974;47.754;-3.364;2023-06-24T08:44:32;102254.63;;;27.65;40.56
79527;BME280;68974;47.754;-3.364;2023-06-24T08:46:57;102253.56;;;28.00;40.10
79527;BME280;68974;47.754;-3.364;2023-06-24T08:54:24;102243.63;;;27.91;39.18
79527;BME280;68974;47.754;-3.364;2023-06-24T08:56:50;102245.47;;;27.83;40.13
79527;BME280;68974;47.754;-3.364;2023-06-24T08:59:17;102246.84;;;28.05;39.12
79527;BME280;68974;47.754;-3.364;2023-06-24T09:01:45;102246.22;;;28.27;38.89
79527;BME280;68974;47.754;-3.364;2023-06-24T09:04:11;102245.16;;;28.67;38.27
79527;BME280;68974;47.754;-3.364;2023-06-24T09:06:36;102247.13;;;28.47;37.80
79527;BME280;68974;47.754;-3.364;2023-06-24T09:09:02;102233.00;;;28.00;39.46
79527;BME280;68974;47.754;-3.364;2023-06-24T09:11:28;102230.25;;;28.04;39.37
79527;BME280;68974;47.754;-3.364;2023-06-24T09:13:58;102236.19;;;27.98;39.18
79527;BME280;68974;47.754;-3.364;2023-06-24T09:16:24;102230.97;;;28.48;38.29
79527;BME280;68974;47.754;-3.364;2023-06-24T09:18:51;102230.56;;;28.65;37.86
79527;BME280;68974;47.754;-3.364;2023-06-24T09:21:24;102213.25;;;29.01;36.63
79527;BME280;68974;47.754;-3.364;2023-06-24T09:23:54;102212.44;;;29.20;37.30
79527;BME280;68974;47.754;-3.364;2023-06-24T09:26:22;102211.28;;;29.63;36.89
79527;BME280;68974;47.754;-3.364;2023-06-24T09:28:48;102212.34;;;29.55;36.37
79527;BME280;68974;47.754;-3.364;2023-06-24T09:31:17;102205.03;;;29.77;35.47
79527;BME280;68974;47.754;-3.364;2023-06-24T09:33:43;102211.31;;;30.08;34.99
79527;BME280;68974;47.754;-3.364;2023-06-24T09:36:15;102201.63;;;30.36;35.18
79527;BME280;68974;47.754;-3.364;2023-06-24T09:38:42;102201.00;;;30.20;35.04
79527;BME280;68974;47.754;-3.364;2023-06-24T09:41:09;102199.31;;;29.73;35.20
79527;BME280;68974;47.754;-3.364;2023-06-24T09:43:36;102198.97;;;29.97;34.88
79527;BME280;68974;47.754;-3.364;2023-06-24T09:46:05;102191.53;;;30.12;34.46
79527;BME280;68974;47.754;-3.364;2023-06-24T09:48:32;102192.78;;;30.41;33.94
79527;BME280;68974;47.754;-3.364;2023-06-24T09:51:00;102195.81;;;30.78;33.25
79527;BME280;68974;47.754;-3.364;2023-06-24T09:53:34;102198.13;;;30.69;33.01
79527;BME280;68974;47.754;-3.364;2023-06-24T09:56:03;102186.50;;;30.81;33.15
79527;BME280;68974;47.754;-3.364;2023-06-24T09:58:35;102183.66;;;30.77;33.07
79527;BME280;68974;47.754;-3.364;2023-06-24T10:01:03;102179.97;;;31.03;32.28
79527;BME280;68974;47.754;-3.364;2023-06-24T10:03:34;102188.69;;;30.91;31.73
79527;BME280;68974;47.754;-3.364;2023-06-24T10:06:04;102175.50;;;31.39;31.46
79527;BME280;68974;47.754;-3.364;2023-06-24T10:08:31;102180.41;;;30.49;32.64
79527;BME280;68974;47.754;-3.364;2023-06-24T10:10:56;102171.91;;;30.49;31.73
79527;BME280;68974;47.754;-3.364;2023-06-24T10:13:22;102169.09;;;30.26;32.42
79527;BME280;68974;47.754;-3.364;2023-06-24T10:15:48;102170.81;;;29.85;32.95
79527;BME280;68974;47.754;-3.364;2023-06-24T10:21:06;102163.06;;;30.54;32.42
79527;BME280;68974;47.754;-3.364;2023-06-24T10:23:36;102161.94;;;30.62;31.55
79527;BME280;68974;47.754;-3.364;2023-06-24T10:26:10;102161.50;;;31.20;30.46
79527;BME280;68974;47.754;-3.364;2023-06-24T10:34:31;102147.50;;;31.78;28.59
79527;BME280;68974;47.754;-3.364;2023-06-24T10:44:51;102143.06;;;30.73;28.40
79527;BME280;68974;47.754;-3.364;2023-06-24T10:47:18;102137.88;;;30.49;29.10
79527;BME280;68974;47.754;-3.364;2023-06-24T10:49:43;102124.00;;;31.04;28.77
79527;BME280;68974;47.754;-3.364;2023-06-24T10:52:10;102124.72;;;30.97;28.16
79527;BME280;68974;47.754;-3.364;2023-06-24T10:54:37;102140.91;;;30.96;27.98
79527;BME280;68974;47.754;-3.364;2023-06-24T10:57:03;102131.78;;;30.80;28.59
79527;BME280;68974;47.754;-3.364;2023-06-24T10:59:34;102131.31;;;30.75;28.74
79527;BME280;68974;47.754;-3.364;2023-06-24T11:01:59;102115.22;;;30.82;28.69
79527;BME280;68974;47.754;-3.364;2023-06-24T11:04:25;102110.78;;;30.85;28.48
79527;BME280;68974;47.754;-3.364;2023-06-24T11:07:00;102106.59;;;31.42;27.93
79527;BME280;68974;47.754;-3.364;2023-06-24T11:09:26;102109.38;;;31.82;27.10
79527;BME280;68974;47.754;-3.364;2023-06-24T11:11:52;102106.50;;;31.35;27.65
79527;BME280;68974;47.754;-3.364;2023-06-24T11:14:19;102108.50;;;31.71;27.04
79527;BME280;68974;47.754;-3.364;2023-06-24T11:16:48;102105.44;;;31.54;27.78
79527;BME280;68974;47.754;-3.364;2023-06-24T11:19:13;102103.31;;;31.44;27.92
79527;BME280;68974;47.754;-3.364;2023-06-24T11:21:39;102094.47;;;31.52;27.18
79527;BME280;68974;47.754;-3.364;2023-06-24T11:24:05;102100.59;;;31.14;27.84
79527;BME280;68974;47.754;-3.364;2023-06-24T11:26:31;102097.69;;;31.47;27.23
79527;BME280;68974;47.754;-3.364;2023-06-24T11:28:57;102085.81;;;31.78;26.84
79527;BME280;68974;47.754;-3.364;2023-06-24T11:31:25;102085.47;;;31.87;27.20
79527;BME280;68974;47.754;-3.364;2023-06-24T11:33:51;102090.88;;;32.06;26.49
79527;BME280;68974;47.754;-3.364;2023-06-24T11:36:20;102087.56;;;31.97;26.16
79527;BME280;68974;47.754;-3.364;2023-06-24T11:38:46;102071.31;;;31.98;26.58
79527;BME280;68974;47.754;-3.364;2023-06-24T11:41:12;102071.88;;;32.14;26.13
79527;BME280;68974;47.754;-3.364;2023-06-24T11:43:44;102074.25;;;32.08;25.69
79527;BME280;68974;47.754;-3.364;2023-06-24T11:46:09;102069.81;;;32.11;25.73
79527;BME280;68974;47.754;-3.364;2023-06-24T11:48:39;102074.38;;;32.26;25.98
79527;BME280;68974;47.754;-3.364;2023-06-24T11:51:12;102067.72;;;32.73;25.20
79527;BME280;68974;47.754;-3.364;2023-06-24T11:53:44;102070.00;;;32.39;25.26
79527;BME280;68974;47.754;-3.364;2023-06-24T11:56:11;102062.00;;;32.70;24.96
79527;BME280;68974;47.754;-3.364;2023-06-24T11:58:37;102065.56;;;32.52;24.67
79527;BME280;68974;47.754;-3.364;2023-06-24T12:01:02;102058.06;;;32.16;25.21
79527;BME280;68974;47.754;-3.364;2023-06-24T12:03:29;102059.13;;;31.90;25.82
79527;BME280;68974;47.754;-3.364;2023-06-24T12:05:55;102050.41;;;31.65;26.13
79527;BME280;68974;47.754;-3.364;2023-06-24T12:08:21;102050.66;;;31.09;26.94
79527;BME280;68974;47.754;-3.364;2023-06-24T12:10:48;102049.50;;;30.77;27.49
79527;BME280;68974;47.754;-3.364;2023-06-24T12:13:14;102049.13;;;31.15;26.92
79527;BME280;68974;47.754;-3.364;2023-06-24T12:15:40;102050.28;;;31.11;26.42
79527;BME280;68974;47.754;-3.364;2023-06-24T12:18:05;102037.66;;;31.05;27.05
79527;BME280;68974;47.754;-3.364;2023-06-24T12:20:31;102033.69;;;31.13;27.03
79527;BME280;68974;47.754;-3.364;2023-06-24T12:22:58;102037.78;;;30.78;27.25
79527;BME280;68974;47.754;-3.364;2023-06-24T12:25:23;102050.22;;;30.70;27.04
79527;BME280;68974;47.754;-3.364;2023-06-24T12:27:49;102040.16;;;30.76;27.19
79527;BME280;68974;47.754;-3.364;2023-06-24T12:30:15;102024.25;;;31.02;26.34
79527;BME280;68974;47.754;-3.364;2023-06-24T12:32:42;102033.19;;;30.70;27.46
79527;BME280;68974;47.754;-3.364;2023-06-24T12:35:08;102026.16;;;30.57;27.08
79527;BME280;68974;47.754;-3.364;2023-06-24T12:37:35;102030.97;;;30.53;27.99
79527;BME280;68974;47.754;-3.364;2023-06-24T12:40:02;102018.28;;;30.77;27.36
79527;BME280;68974;47.754;-3.364;2023-06-24T12:42:27;102018.16;;;30.66;27.21
79527;BME280;68974;47.754;-3.364;2023-06-24T12:44:53;102009.50;;;30.52;27.63
79527;BME280;68974;47.754;-3.364;2023-06-24T12:47:20;102011.47;;;30.48;27.43
79527;BME280;68974;47.754;-3.364;2023-06-24T12:49:45;102014.00;;;30.27;27.79
79527;BME280;68974;47.754;-3.364;2023-06-24T12:52:12;102014.03;;;30.30;27.73
79527;BME280;68974;47.754;-3.364;2023-06-24T12:54:38;102010.31;;;30.23;27.85
79527;BME280;68974;47.754;-3.364;2023-06-24T12:57:03;102025.00;;;30.62;27.46
79527;BME280;68974;47.754;-3.364;2023-06-24T12:59:29;102004.91;;;30.44;27.65
79527;BME280;68974;47.754;-3.364;2023-06-24T13:01:54;102007.63;;;30.67;27.98
79527;BME280;68974;47.754;-3.364;2023-06-24T13:04:20;101997.13;;;30.37;28.08
79527;BME280;68974;47.754;-3.364;2023-06-24T13:06:48;101996.84;;;30.46;28.23
79527;BME280;68974;47.754;-3.364;2023-06-24T13:09:13;101996.09;;;30.49;29.08
79527;BME280;68974;47.754;-3.364;2023-06-24T13:11:38;101988.38;;;30.83;28.51